sensor_id;sensor_type;location;lat;lon;timestamp;temperature;humidity
4874;DHT22;2451;49.970;9.068;2023-01-13T00:02:19;10.10;99.90
4874;DHT22;2451;49.970;9.068;2023-01-13T00:04:45;10.20;99.90
4874;DHT22;2451;49.970;9.068;2023-01-13T00:07:11;10.20;99.90
4874;DHT22;2451;49.970;9.068;2023-01-13T00:09:36;10.20;99.90
4874;DHT22;2451;49.970;9.068;2023-01-13T00:12:03;10.20;99.90
4874;DHT22;2451;49.970;9.068;2023-01-13T00:14:31;10.20;99.90
4874;DHT22;2451;49.970;9.068;2023-01-13T00:16:57;10.20;99.90
4874;DHT22;2451;49.970;9.068;2023-01-13T00:19:23;10.20;99.90
4874;DHT22;2451;49.970;9.068;2023-01-13T00:21:49;10.20;99.90
4874;DHT22;2451;49.970;9.068;2023-01-13T00:24:14;10.30;99.90
4874;DHT22;2451;49.970;9.068;2023-01-13T00:26:40;10.20;99.90
4874;DHT22;2451;49.970;9.068;2023-01-13T00:29:05;10.20;99.90
4874;DHT22;2451;49.970;9.068;2023-01-13T00:31:31;10.20;99.90
4874;DHT22;2451;49.970;9.068;2023-01-13T00:33:59;10.20;99.90
4874;DHT22;2451;49.970;9.068;2023-01-13T00:36:26;10.20;99.90
4874;DHT22;2451;49.970;9.068;2023-01-13T00:38:52;10.30;99.90
4874;DHT22;2451;49.970;9.068;2023-01-13T00:41:20;10.30;99.90
4874;DHT22;2451;49.970;9.068;2023-01-13T00:43:46;10.20;99.90
4874;DHT22;2451;49.970;9.068;2023-01-13T00:46:16;10.30;99.90
4874;DHT22;2451;49.970;9.068;2023-01-13T00:48:41;10.20;99.90
4874;DHT22;2451;49.970;9.068;2023-01-13T00:51:11;10.30;99.90
4874;DHT22;2451;49.970;9.068;2023-01-13T00:53:39;10.30;99.90
4874;DHT22;2451;49.970;9.068;2023-01-13T00:56:07;10.30;99.90
4874;DHT22;2451;49.970;9.068;2023-01-13T00:58:35;10.30;99.90
4874;DHT22;2451;49.970;9.068;2023-01-13T01:01:06;10.30;99.90
4874;DHT22;2451;49.970;9.068;2023-01-13T01:03:34;10.40;99.90
4874;DHT22;2451;49.970;9.068;2023-01-13T01:06:11;10.30;99.90
4874;DHT22;2451;49.970;9.068;2023-01-13T01:08:36;10.30;99.90
4874;DHT22;2451;49.970;9.068;2023-01-13T01:11:08;10.40;99.90
4874;DHT22;2451;49.970;9.068;2023-01-13T01:13:35;10.40;99.90
4874;DHT22;2451;49.970;9.068;2023-01-13T01:16:18;10.40;99.90
4874;DHT22;2451;49.970;9.068;2023-01-13T01:18:46;10.30;99.90
4874;DHT22;2451;49.970;9.068;2023-01-13T01:21:13;10.30;99.90
4874;DHT22;2451;49.970;9.068;2023-01-13T01:23:39;10.40;99.90
4874;DHT22;2451;49.970;9.068;2023-01-13T01:28:38;10.40;99.90
4874;DHT22;2451;49.970;9.068;2023-01-13T01:31:06;10.40;99.90
4874;DHT22;2451;49.970;9.068;2023-01-13T01:33:32;10.50;99.90
4874;DHT22;2451;49.970;9.068;2023-01-13T01:36:00;10.50;99.90
4874;DHT22;2451;49.970;9.068;2023-01-13T01:38:25;10.50;99.90
4874;DHT22;2451;49.970;9.068;2023-01-13T01:40:51;10.50;99.90
4874;DHT22;2451;49.970;9.068;2023-01-13T01:43:20;10.50;99.90
4874;DHT22;2451;49.970;9.068;2023-01-13T01:46:04;10.50;99.90
4874;DHT22;2451;49.970;9.068;2023-01-13T01:48:36;10.50;99.90
4874;DHT22;2451;49.970;9.068;2023-01-13T01:51:03;10.60;99.90
4874;DHT22;2451;49.970;9.068;2023-01-13T01:53:32;10.60;99.90
4874;DHT22;2451;49.970;9.068;2023-01-13T01:55:58;10.60;99.90
4874;DHT22;2451;49.970;9.068;2023-01-13T01:58:29;10.60;99.90
4874;DHT22;2451;49.970;9.068;2023-01-13T02:00:56;10.60;99.90
4874;DHT22;2451;49.970;9.068;2023-01-13T02:03:23;10.60;99.90
4874;DHT22;2451;49.970;9.068;2023-01-13T02:05:49;10.60;99.90
4874;DHT22;2451;49.970;9.068;2023-01-13T02:08:15;10.60;99.90
4874;DHT22;2451;49.970;9.068;2023-01-13T02:10:42;10.60;99.90
4874;DHT22;2451;49.970;9.068;2023-01-13T02:13:12;10.60;99.90
4874;DHT22;2451;49.970;9.068;2023-01-13T02:21:27;10.70;99.90
4874;DHT22;2451;49.970;9.068;2023-01-13T02:24:36;10.70;99.90
4874;DHT22;2451;49.970;9.068;2023-01-13T02:27:28;10.70;99.90
4874;DHT22;2451;49.970;9.068;2023-01-13T02:30:25;10.60;99.90
4874;DHT22;2451;49.970;9.068;2023-01-13T02:38:55;10.60;99.90
4874;DHT22;2451;49.970;9.068;2023-01-13T02:41:28;10.60;99.90
4874;DHT22;2451;49.970;9.068;2023-01-13T02:44:20;10.60;99.90
4874;DHT22;2451;49.970;9.068;2023-01-13T02:49:36;10.50;99.90
4874;DHT22;2451;49.970;9.068;2023-01-13T02:54:43;10.50;99.90
4874;DHT22;2451;49.970;9.068;2023-01-13T02:57:12;10.50;99.90
4874;DHT22;2451;49.970;9.068;2023-01-13T02:59:39;10.60;99.90
4874;DHT22;2451;49.970;9.068;2023-01-13T03:02:12;10.60;99.90
4874;DHT22;2451;49.970;9.068;2023-01-13T03:07:29;10.60;99.90
4874;DHT22;2451;49.970;9.068;2023-01-13T03:10:10;10.70;99.90
4874;DHT22;2451;49.970;9.068;2023-01-13T03:12:48;10.70;99.90
4874;DHT22;2451;49.970;9.068;2023-01-13T03:23:34;10.70;99.90
4874;DHT22;2451;49.970;9.068;2023-01-13T03:28:44;10.70;99.90
4874;DHT22;2451;49.970;9.068;2023-01-13T03:31:17;10.70;99.90
4874;DHT22;2451;49.970;9.068;2023-01-13T03:33:53;10.70;99.90
4874;DHT22;2451;49.970;9.068;2023-01-13T03:36:22;10.70;99.90
4874;DHT22;2451;49.970;9.068;2023-01-13T03:38:57;10.70;99.90
4874;DHT22;2451;49.970;9.068;2023-01-13T03:41:38;10.70;99.90
4874;DHT22;2451;49.970;9.068;2023-01-13T03:44:14;10.70;99.90
4874;DHT22;2451;49.970;9.068;2023-01-13T03:52:23;10.70;99.90
4874;DHT22;2451;49.970;9.068;2023-01-13T03:54:55;10.70;99.90
4874;DHT22;2451;49.970;9.068;2023-01-13T03:57:29;10.80;99.90
4874;DHT22;2451;49.970;9.068;2023-01-13T03:59:59;10.70;99.90
4874;DHT22;2451;49.970;9.068;2023-01-13T04:05:05;10.60;99.90
4874;DHT22;2451;49.970;9.068;2023-01-13T04:07:51;10.60;99.90
4874;DHT22;2451;49.970;9.068;2023-01-13T04:10:31;10.70;99.90
4874;DHT22;2451;49.970;9.068;2023-01-13T04:13:03;10.70;99.90
4874;DHT22;2451;49.970;9.068;2023-01-13T04:20:40;10.60;99.90
4874;DHT22;2451;49.970;9.068;2023-01-13T04:23:07;10.60;99.90
4874;DHT22;2451;49.970;9.068;2023-01-13T04:25:34;10.60;99.90
4874;DHT22;2451;49.970;9.068;2023-01-13T04:28:01;10.60;99.90
4874;DHT22;2451;49.970;9.068;2023-01-13T04:30:27;10.60;99.90
4874;DHT22;2451;49.970;9.068;2023-01-13T04:32:53;10.60;99.90
4874;DHT22;2451;49.970;9.068;2023-01-13T04:35:19;10.60;99.90
4874;DHT22;2451;49.970;9.068;2023-01-13T04:37:45;10.60;99.90
4874;DHT22;2451;49.970;9.068;2023-01-13T04:40:10;10.50;99.90
4874;DHT22;2451;49.970;9.068;2023-01-13T04:42:36;10.50;99.90
4874;DHT22;2451;49.970;9.068;2023-01-13T04:45:04;10.50;99.90
4874;DHT22;2451;49.970;9.068;2023-01-13T04:47:29;10.50;99.90
4874;DHT22;2451;49.970;9.068;2023-01-13T04:49:55;10.50;99.90
4874;DHT22;2451;49.970;9.068;2023-01-13T04:52:21;10.50;99.90
4874;DHT22;2451;49.970;9.068;2023-01-13T04:54:46;10.50;99.90
4874;DHT22;2451;49.970;9.068;2023-01-13T04:57:12;10.50;99.90
4874;DHT22;2451;49.970;9.068;2023-01-13T04:59:38;10.60;99.90
4874;DHT22;2451;49.970;9.068;2023-01-13T05:02:06;10.60;99.90
4874;DHT22;2451;49.970;9.068;2023-01-13T05:04:34;10.60;99.90
4874;DHT22;2451;49.970;9.068;2023-01-13T05:07:00;10.60;99.90
4874;DHT22;2451;49.970;9.068;2023-01-13T05:09:25;10.60;99.90
4874;DHT22;2451;49.970;9.068;2023-01-13T05:11:51;10.50;99.90
4874;DHT22;2451;49.970;9.068;2023-01-13T05:14:42;10.60;99.90
4874;DHT22;2451;49.970;9.068;2023-01-13T05:17:26;10.50;99.90
4874;DHT22;2451;49.970;9.068;2023-01-13T05:19:52;10.60;99.90
4874;DHT22;2451;49.970;9.068;2023-01-13T05:22:17;10.50;99.90
4874;DHT22;2451;49.970;9.068;2023-01-13T05:25:03;10.50;99.90
4874;DHT22;2451;49.970;9.068;2023-01-13T05:27:48;10.50;99.90
4874;DHT22;2451;49.970;9.068;2023-01-13T05:30:14;10.50;99.90
4874;DHT22;2451;49.970;9.068;2023-01-13T05:32:40;10.40;99.90
4874;DHT22;2451;49.970;9.068;2023-01-13T05:35:07;10.50;99.90
4874;DHT22;2451;49.970;9.068;2023-01-13T05:37:33;10.50;99.90
4874;DHT22;2451;49.970;9.068;2023-01-13T05:39:59;10.50;99.90
4874;DHT22;2451;49.970;9.068;2023-01-13T05:42:43;10.40;99.90
4874;DHT22;2451;49.970;9.068;2023-01-13T05:45:29;10.40;99.90
4874;DHT22;2451;49.970;9.068;2023-01-13T05:47:55;10.40;99.90
4874;DHT22;2451;49.970;9.068;2023-01-13T05:50:21;10.40;99.90
4874;DHT22;2451;49.970;9.068;2023-01-13T05:52:48;10.30;99.90
4874;DHT22;2451;49.970;9.068;2023-01-13T05:55:13;10.30;99.90
4874;DHT22;2451;49.970;9.068;2023-01-13T05:57:42;10.20;99.90
4874;DHT22;2451;49.970;9.068;2023-01-13T06:00:09;10.20;99.90
4874;DHT22;2451;49.970;9.068;2023-01-13T06:02:35;10.10;99.90
4874;DHT22;2451;49.970;9.068;2023-01-13T06:05:01;10.10;99.90
4874;DHT22;2451;49.970;9.068;2023-01-13T06:07:27;10.00;99.90
4874;DHT22;2451;49.970;9.068;2023-01-13T06:09:52;10.00;99.90
4874;DHT22;2451;49.970;9.068;2023-01-13T06:12:18;9.90;99.90
4874;DHT22;2451;49.970;9.068;2023-01-13T06:14:43;9.90;99.90
4874;DHT22;2451;49.970;9.068;2023-01-13T06:17:11;9.80;99.90
4874;DHT22;2451;49.970;9.068;2023-01-13T06:19:37;9.80;99.90
4874;DHT22;2451;49.970;9.068;2023-01-13T06:22:18;9.70;99.90
4874;DHT22;2451;49.970;9.068;2023-01-13T06:24:48;9.70;99.90
4874;DHT22;2451;49.970;9.068;2023-01-13T06:27:14;9.70;99.90
4874;DHT22;2451;49.970;9.068;2023-01-13T06:29:41;9.40;99.90
4874;DHT22;2451;49.970;9.068;2023-01-13T06:32:13;9.10;99.90
4874;DHT22;2451;49.970;9.068;2023-01-13T06:34:46;8.90;99.90
4874;DHT22;2451;49.970;9.068;2023-01-13T06:37:13;8.80;99.90
4874;DHT22;2451;49.970;9.068;2023-01-13T06:39:42;8.70;99.90
4874;DHT22;2451;49.970;9.068;2023-01-13T06:42:08;8.70;99.90
4874;DHT22;2451;49.970;9.068;2023-01-13T06:44:52;8.70;99.90
4874;DHT22;2451;49.970;9.068;2023-01-13T06:47:18;8.70;99.90
4874;DHT22;2451;49.970;9.068;2023-01-13T06:49:46;8.70;99.90
4874;DHT22;2451;49.970;9.068;2023-01-13T06:52:12;8.80;99.90
4874;DHT22;2451;49.970;9.068;2023-01-13T06:54:38;8.80;99.90
4874;DHT22;2451;49.970;9.068;2023-01-13T06:57:06;8.80;99.90
4874;DHT22;2451;49.970;9.068;2023-01-13T06:59:32;8.80;99.90
4874;DHT22;2451;49.970;9.068;2023-01-13T07:02:01;8.80;99.90
4874;DHT22;2451;49.970;9.068;2023-01-13T07:04:26;8.80;99.90
4874;DHT22;2451;49.970;9.068;2023-01-13T07:06:52;8.70;99.90
4874;DHT22;2451;49.970;9.068;2023-01-13T07:09:17;8.70;99.90
4874;DHT22;2451;49.970;9.068;2023-01-13T07:11:43;8.80;99.90
4874;DHT22;2451;49.970;9.068;2023-01-13T07:14:10;8.80;99.90
4874;DHT22;2451;49.970;9.068;2023-01-13T07:16:54;8.80;99.90
4874;DHT22;2451;49.970;9.068;2023-01-13T07:19:20;8.80;99.90
4874;DHT22;2451;49.970;9.068;2023-01-13T07:21:56;8.70;99.90
4874;DHT22;2451;49.970;9.068;2023-01-13T07:24:22;8.70;99.90
4874;DHT22;2451;49.970;9.068;2023-01-13T07:26:49;8.70;99.90
4874;DHT22;2451;49.970;9.068;2023-01-13T07:29:14;8.70;99.90
4874;DHT22;2451;49.970;9.068;2023-01-13T07:31:40;8.70;99.90
4874;DHT22;2451;49.970;9.068;2023-01-13T07:34:08;8.60;99.90
4874;DHT22;2451;49.970;9.068;2023-01-13T07:36:34;8.60;99.90
4874;DHT22;2451;49.970;9.068;2023-01-13T07:39:00;8.60;99.90
4874;DHT22;2451;49.970;9.068;2023-01-13T07:41:25;8.60;99.90
4874;DHT22;2451;49.970;9.068;2023-01-13T07:44:09;8.60;99.90
4874;DHT22;2451;49.970;9.068;2023-01-13T07:46:36;8.60;99.90
4874;DHT22;2451;49.970;9.068;2023-01-13T07:49:03;8.50;99.90
4874;DHT22;2451;49.970;9.068;2023-01-13T07:51:29;8.50;99.90
4874;DHT22;2451;49.970;9.068;2023-01-13T07:53:55;8.40;99.90
4874;DHT22;2451;49.970;9.068;2023-01-13T07:56:21;8.40;99.90
4874;DHT22;2451;49.970;9.068;2023-01-13T07:58:46;8.30;99.90
4874;DHT22;2451;49.970;9.068;2023-01-13T08:01:16;8.30;99.90
4874;DHT22;2451;49.970;9.068;2023-01-13T08:03:44;8.30;99.90
4874;DHT22;2451;49.970;9.068;2023-01-13T08:06:11;8.30;99.90
4874;DHT22;2451;49.970;9.068;2023-01-13T08:08:37;8.30;99.90
4874;DHT22;2451;49.970;9.068;2023-01-13T08:11:06;8.30;99.90
4874;DHT22;2451;49.970;9.068;2023-01-13T08:13:32;8.30;99.90
4874;DHT22;2451;49.970;9.068;2023-01-13T08:16:09;8.30;99.90
4874;DHT22;2451;49.970;9.068;2023-01-13T08:18:38;8.30;99.90
4874;DHT22;2451;49.970;9.068;2023-01-13T08:21:10;8.30;99.90
4874;DHT22;2451;49.970;9.068;2023-01-13T08:23:37;8.30;99.90
4874;DHT22;2451;49.970;9.068;2023-01-13T08:26:05;8.30;99.90
4874;DHT22;2451;49.970;9.068;2023-01-13T08:28:31;8.30;99.90
4874;DHT22;2451;49.970;9.068;2023-01-13T08:31:01;8.30;99.90
4874;DHT22;2451;49.970;9.068;2023-01-13T08:33:28;8.30;99.90
4874;DHT22;2451;49.970;9.068;2023-01-13T08:35:54;8.30;99.90
4874;DHT22;2451;49.970;9.068;2023-01-13T08:38:22;8.40;99.90
4874;DHT22;2451;49.970;9.068;2023-01-13T08:40:48;8.40;99.90
4874;DHT22;2451;49.970;9.068;2023-01-13T08:43:14;8.40;99.90
4874;DHT22;2451;49.970;9.068;2023-01-13T08:45:39;8.40;99.90
4874;DHT22;2451;49.970;9.068;2023-01-13T08:48:05;8.40;99.90
4874;DHT22;2451;49.970;9.068;2023-01-13T08:50:31;8.40;99.90
4874;DHT22;2451;49.970;9.068;2023-01-13T08:52:56;8.40;99.90
4874;DHT22;2451;49.970;9.068;2023-01-13T08:55:24;8.50;99.90
4874;DHT22;2451;49.970;9.068;2023-01-13T08:57:49;8.60;99.90
4874;DHT22;2451;49.970;9.068;2023-01-13T09:00:15;8.50;99.90
4874;DHT22;2451;49.970;9.068;2023-01-13T09:02:41;8.50;99.90
4874;DHT22;2451;49.970;9.068;2023-01-13T09:05:08;8.50;99.90
4874;DHT22;2451;49.970;9.068;2023-01-13T09:07:36;8.60;99.90
4874;DHT22;2451;49.970;9.068;2023-01-13T09:10:05;8.60;99.90
4874;DHT22;2451;49.970;9.068;2023-01-13T09:12:32;8.60;99.90
4874;DHT22;2451;49.970;9.068;2023-01-13T09:15:16;8.60;99.90
4874;DHT22;2451;49.970;9.068;2023-01-13T09:17:43;8.70;99.90
4874;DHT22;2451;49.970;9.068;2023-01-13T09:20:14;8.70;99.90
4874;DHT22;2451;49.970;9.068;2023-01-13T09:22:40;8.80;99.90
4874;DHT22;2451;49.970;9.068;2023-01-13T09:25:06;8.80;99.90
4874;DHT22;2451;49.970;9.068;2023-01-13T09:27:32;8.90;99.90
4874;DHT22;2451;49.970;9.068;2023-01-13T09:29:57;8.90;99.90
4874;DHT22;2451;49.970;9.068;2023-01-13T09:32:23;9.00;99.90
4874;DHT22;2451;49.970;9.068;2023-01-13T09:34:49;8.90;99.90
4874;DHT22;2451;49.970;9.068;2023-01-13T09:37:50;8.90;99.90
4874;DHT22;2451;49.970;9.068;2023-01-13T09:40:17;9.00;99.90
4874;DHT22;2451;49.970;9.068;2023-01-13T09:42:57;9.10;99.90
4874;DHT22;2451;49.970;9.068;2023-01-13T09:45:50;9.30;99.90
4874;DHT22;2451;49.970;9.068;2023-01-13T09:48:24;9.70;99.90
4874;DHT22;2451;49.970;9.068;2023-01-13T09:51:02;10.10;99.90
4874;DHT22;2451;49.970;9.068;2023-01-13T09:53:35;10.80;99.90
4874;DHT22;2451;49.970;9.068;2023-01-13T09:56:03;11.10;99.90
4874;DHT22;2451;49.970;9.068;2023-01-13T09:58:29;11.40;99.90
4874;DHT22;2451;49.970;9.068;2023-01-13T10:03:39;11.40;99.90
4874;DHT22;2451;49.970;9.068;2023-01-13T10:06:15;11.60;99.90
4874;DHT22;2451;49.970;9.068;2023-01-13T10:08:46;11.90;99.90
4874;DHT22;2451;49.970;9.068;2023-01-13T10:11:23;12.10;99.90
4874;DHT22;2451;49.970;9.068;2023-01-13T10:14:17;12.40;99.90
4874;DHT22;2451;49.970;9.068;2023-01-13T10:16:49;12.00;99.90
4874;DHT22;2451;49.970;9.068;2023-01-13T10:22:20;11.60;99.90
4874;DHT22;2451;49.970;9.068;2023-01-13T10:25:17;12.00;99.90
4874;DHT22;2451;49.970;9.068;2023-01-13T10:27:47;12.30;99.90
4874;DHT22;2451;49.970;9.068;2023-01-13T10:30:19;12.60;99.90
4874;DHT22;2451;49.970;9.068;2023-01-13T10:35:59;13.10;99.90
4874;DHT22;2451;49.970;9.068;2023-01-13T10:41:03;12.60;99.90
4874;DHT22;2451;49.970;9.068;2023-01-13T10:43:32;12.10;99.90
4874;DHT22;2451;49.970;9.068;2023-01-13T10:46:01;11.90;99.90
4874;DHT22;2451;49.970;9.068;2023-01-13T10:48:43;11.90;99.90
4874;DHT22;2451;49.970;9.068;2023-01-13T10:53:53;12.40;99.90
4874;DHT22;2451;49.970;9.068;2023-01-13T10:56:21;12.90;99.90
4874;DHT22;2451;49.970;9.068;2023-01-13T10:58:49;13.30;99.90
4874;DHT22;2451;49.970;9.068;2023-01-13T11:01:23;13.70;99.90
4874;DHT22;2451;49.970;9.068;2023-01-13T11:03:55;13.30;99.90
4874;DHT22;2451;49.970;9.068;2023-01-13T11:06:29;12.90;99.90
4874;DHT22;2451;49.970;9.068;2023-01-13T11:08:56;12.60;99.90
4874;DHT22;2451;49.970;9.068;2023-01-13T11:13:55;12.70;99.90
4874;DHT22;2451;49.970;9.068;2023-01-13T11:16:45;13.30;99.90
4874;DHT22;2451;49.970;9.068;2023-01-13T11:19:16;14.00;99.90
4874;DHT22;2451;49.970;9.068;2023-01-13T11:21:51;14.10;99.90
4874;DHT22;2451;49.970;9.068;2023-01-13T11:24:38;13.90;99.90
4874;DHT22;2451;49.970;9.068;2023-01-13T11:27:14;13.30;99.90
4874;DHT22;2451;49.970;9.068;2023-01-13T11:30:05;12.80;99.90
4874;DHT22;2451;49.970;9.068;2023-01-13T11:35:33;13.60;99.90
4874;DHT22;2451;49.970;9.068;2023-01-13T11:38:32;13.50;99.90
4874;DHT22;2451;49.970;9.068;2023-01-13T11:41:41;13.20;99.90
4874;DHT22;2451;49.970;9.068;2023-01-13T11:44:23;12.40;99.90
4874;DHT22;2451;49.970;9.068;2023-01-13T11:46:53;11.90;99.90
4874;DHT22;2451;49.970;9.068;2023-01-13T11:49:27;11.60;99.90
4874;DHT22;2451;49.970;9.068;2023-01-13T11:52:02;11.60;99.90
4874;DHT22;2451;49.970;9.068;2023-01-13T11:57:33;11.50;99.90
4874;DHT22;2451;49.970;9.068;2023-01-13T12:00:41;12.00;99.90
4874;DHT22;2451;49.970;9.068;2023-01-13T12:03:45;12.10;99.90
4874;DHT22;2451;49.970;9.068;2023-01-13T12:06:28;12.00;99.90
4874;DHT22;2451;49.970;9.068;2023-01-13T12:12:01;11.80;99.90
4874;DHT22;2451;49.970;9.068;2023-01-13T12:15:11;11.70;99.90
4874;DHT22;2451;49.970;9.068;2023-01-13T12:22:42;11.40;99.90
4874;DHT22;2451;49.970;9.068;2023-01-13T12:25:19;11.40;99.90
4874;DHT22;2451;49.970;9.068;2023-01-13T12:28:09;11.30;99.90
4874;DHT22;2451;49.970;9.068;2023-01-13T12:30:44;11.30;99.90
4874;DHT22;2451;49.970;9.068;2023-01-13T12:38:50;10.90;99.90
4874;DHT22;2451;49.970;9.068;2023-01-13T12:41:43;10.90;99.90
4874;DHT22;2451;49.970;9.068;2023-01-13T12:44:30;10.70;99.90
4874;DHT22;2451;49.970;9.068;2023-01-13T12:46:57;10.70;99.90
4874;DHT22;2451;49.970;9.068;2023-01-13T13:02:26;11.60;99.90
4874;DHT22;2451;49.970;9.068;2023-01-13T13:05:00;11.90;99.90
4874;DHT22;2451;49.970;9.068;2023-01-13T13:07:44;12.20;99.90
4874;DHT22;2451;49.970;9.068;2023-01-13T13:15:31;11.70;99.90
4874;DHT22;2451;49.970;9.068;2023-01-13T13:18:05;11.50;99.90
4874;DHT22;2451;49.970;9.068;2023-01-13T13:21:06;11.40;99.90
4874;DHT22;2451;49.970;9.068;2023-01-13T13:39:53;10.50;99.90
4874;DHT22;2451;49.970;9.068;2023-01-13T13:42:46;10.60;99.90
4874;DHT22;2451;49.970;9.068;2023-01-13T13:45:31;10.60;99.90
4874;DHT22;2451;49.970;9.068;2023-01-13T13:48:27;10.50;99.90
4874;DHT22;2451;49.970;9.068;2023-01-13T13:50:56;10.40;99.90
4874;DHT22;2451;49.970;9.068;2023-01-13T13:53:31;10.50;99.90
4874;DHT22;2451;49.970;9.068;2023-01-13T13:55:59;10.50;99.90
4874;DHT22;2451;49.970;9.068;2023-01-13T13:58:27;10.40;99.90
4874;DHT22;2451;49.970;9.068;2023-01-13T14:00:55;10.40;99.90
4874;DHT22;2451;49.970;9.068;2023-01-13T14:03:26;10.40;99.90
4874;DHT22;2451;49.970;9.068;2023-01-13T14:05:55;10.40;99.90
4874;DHT22;2451;49.970;9.068;2023-01-13T14:08:22;10.40;99.90
4874;DHT22;2451;49.970;9.068;2023-01-13T14:10:50;10.40;99.90
4874;DHT22;2451;49.970;9.068;2023-01-13T14:13:24;10.40;99.90
4874;DHT22;2451;49.970;9.068;2023-01-13T14:16:17;10.40;99.90
4874;DHT22;2451;49.970;9.068;2023-01-13T14:18:45;10.40;99.90
4874;DHT22;2451;49.970;9.068;2023-01-13T14:21:27;10.40;99.90
4874;DHT22;2451;49.970;9.068;2023-01-13T14:24:17;10.40;99.90
4874;DHT22;2451;49.970;9.068;2023-01-13T14:26:45;10.30;99.90
4874;DHT22;2451;49.970;9.068;2023-01-13T14:29:20;10.10;99.90
4874;DHT22;2451;49.970;9.068;2023-01-13T14:31:46;9.90;99.90
4874;DHT22;2451;49.970;9.068;2023-01-13T14:34:13;9.70;99.90
4874;DHT22;2451;49.970;9.068;2023-01-13T14:36:39;9.50;99.90
4874;DHT22;2451;49.970;9.068;2023-01-13T14:41:36;9.50;99.90
4874;DHT22;2451;49.970;9.068;2023-01-13T14:47:34;9.60;99.90
4874;DHT22;2451;49.970;9.068;2023-01-13T14:52:33;9.50;99.90
4874;DHT22;2451;49.970;9.068;2023-01-13T14:57:38;9.50;99.90
4874;DHT22;2451;49.970;9.068;2023-01-13T15:13:41;9.00;99.90
4874;DHT22;2451;49.970;9.068;2023-01-13T15:16:24;9.00;99.90
4874;DHT22;2451;49.970;9.068;2023-01-13T15:18:50;8.90;99.90
4874;DHT22;2451;49.970;9.068;2023-01-13T15:21:16;8.90;99.90
4874;DHT22;2451;49.970;9.068;2023-01-13T15:23:45;8.90;99.90
4874;DHT22;2451;49.970;9.068;2023-01-13T15:26:26;8.90;99.90
4874;DHT22;2451;49.970;9.068;2023-01-13T15:28:54;8.80;99.90
4874;DHT22;2451;49.970;9.068;2023-01-13T15:31:20;8.80;99.90
4874;DHT22;2451;49.970;9.068;2023-01-13T15:33:46;8.80;99.90
4874;DHT22;2451;49.970;9.068;2023-01-13T15:36:28;8.80;99.90
4874;DHT22;2451;49.970;9.068;2023-01-13T15:38:56;8.80;99.90
4874;DHT22;2451;49.970;9.068;2023-01-13T15:41:23;8.80;99.90
4874;DHT22;2451;49.970;9.068;2023-01-13T15:44:10;8.80;99.90
4874;DHT22;2451;49.970;9.068;2023-01-13T15:46:54;8.80;99.90
4874;DHT22;2451;49.970;9.068;2023-01-13T15:49:30;8.80;99.90
4874;DHT22;2451;49.970;9.068;2023-01-13T15:52:04;8.80;99.90
4874;DHT22;2451;49.970;9.068;2023-01-13T15:54:30;8.80;99.90
4874;DHT22;2451;49.970;9.068;2023-01-13T15:56:56;8.80;99.90
4874;DHT22;2451;49.970;9.068;2023-01-13T15:59:25;8.80;99.90
4874;DHT22;2451;49.970;9.068;2023-01-13T16:01:51;8.80;99.90
4874;DHT22;2451;49.970;9.068;2023-01-13T16:04:17;8.80;99.90
4874;DHT22;2451;49.970;9.068;2023-01-13T16:06:44;8.80;99.90
4874;DHT22;2451;49.970;9.068;2023-01-13T16:09:12;8.80;99.90
4874;DHT22;2451;49.970;9.068;2023-01-13T16:11:38;8.80;99.90
4874;DHT22;2451;49.970;9.068;2023-01-13T16:14:04;8.90;99.90
4874;DHT22;2451;49.970;9.068;2023-01-13T16:16:30;8.90;99.90
4874;DHT22;2451;49.970;9.068;2023-01-13T16:18:56;8.90;99.90
4874;DHT22;2451;49.970;9.068;2023-01-13T16:21:22;8.90;99.90
4874;DHT22;2451;49.970;9.068;2023-01-13T16:23:49;8.90;99.90
4874;DHT22;2451;49.970;9.068;2023-01-13T16:26:20;8.90;99.90
4874;DHT22;2451;49.970;9.068;2023-01-13T16:28:46;8.90;99.90
4874;DHT22;2451;49.970;9.068;2023-01-13T16:31:32;8.90;99.90
4874;DHT22;2451;49.970;9.068;2023-01-13T16:33:59;8.90;99.90
4874;DHT22;2451;49.970;9.068;2023-01-13T16:36:26;8.90;99.90
4874;DHT22;2451;49.970;9.068;2023-01-13T16:38:52;8.90;99.90
4874;DHT22;2451;49.970;9.068;2023-01-13T16:41:19;8.80;99.90
4874;DHT22;2451;49.970;9.068;2023-01-13T16:43:47;8.90;99.90
4874;DHT22;2451;49.970;9.068;2023-01-13T16:46:19;8.90;99.90
4874;DHT22;2451;49.970;9.068;2023-01-13T16:48:45;8.90;99.90
4874;DHT22;2451;49.970;9.068;2023-01-13T16:51:11;8.90;99.90
4874;DHT22;2451;49.970;9.068;2023-01-13T16:53:47;8.90;99.90
4874;DHT22;2451;49.970;9.068;2023-01-13T16:58:45;8.90;99.90
4874;DHT22;2451;49.970;9.068;2023-01-13T17:01:21;8.90;99.90
4874;DHT22;2451;49.970;9.068;2023-01-13T17:03:47;8.80;99.90
4874;DHT22;2451;49.970;9.068;2023-01-13T17:06:14;8.90;99.90
4874;DHT22;2451;49.970;9.068;2023-01-13T17:08:42;8.90;99.90
4874;DHT22;2451;49.970;9.068;2023-01-13T17:11:08;8.90;99.90
4874;DHT22;2451;49.970;9.068;2023-01-13T17:13:34;8.90;99.90
4874;DHT22;2451;49.970;9.068;2023-01-13T17:15:59;8.90;99.90
4874;DHT22;2451;49.970;9.068;2023-01-13T17:18:25;8.90;99.90
4874;DHT22;2451;49.970;9.068;2023-01-13T17:20:50;8.90;99.90
4874;DHT22;2451;49.970;9.068;2023-01-13T17:23:17;8.90;99.90
4874;DHT22;2451;49.970;9.068;2023-01-13T17:25:44;8.90;99.90
4874;DHT22;2451;49.970;9.068;2023-01-13T17:28:09;8.90;99.90
4874;DHT22;2451;49.970;9.068;2023-01-13T17:30:35;8.90;99.90
4874;DHT22;2451;49.970;9.068;2023-01-13T17:33:01;8.90;99.90
4874;DHT22;2451;49.970;9.068;2023-01-13T17:35:26;8.90;99.90
4874;DHT22;2451;49.970;9.068;2023-01-13T17:37:52;8.90;99.90
4874;DHT22;2451;49.970;9.068;2023-01-13T17:40:18;9.00;99.90
4874;DHT22;2451;49.970;9.068;2023-01-13T17:42:47;9.00;99.90
4874;DHT22;2451;49.970;9.068;2023-01-13T17:45:12;8.90;99.90
4874;DHT22;2451;49.970;9.068;2023-01-13T17:47:39;8.90;99.90
4874;DHT22;2451;49.970;9.068;2023-01-13T17:50:05;9.00;99.90
4874;DHT22;2451;49.970;9.068;2023-01-13T17:52:31;9.00;99.90
4874;DHT22;2451;49.970;9.068;2023-01-13T17:54:57;9.00;99.90
4874;DHT22;2451;49.970;9.068;2023-01-13T17:57:23;8.90;99.90
4874;DHT22;2451;49.970;9.068;2023-01-13T17:59:48;8.90;99.90
4874;DHT22;2451;49.970;9.068;2023-01-13T18:02:14;8.90;99.90
4874;DHT22;2451;49.970;9.068;2023-01-13T18:04:40;8.90;99.90
4874;DHT22;2451;49.970;9.068;2023-01-13T18:07:06;8.90;99.90
4874;DHT22;2451;49.970;9.068;2023-01-13T18:09:32;8.80;99.90
4874;DHT22;2451;49.970;9.068;2023-01-13T18:11:58;8.80;99.90
4874;DHT22;2451;49.970;9.068;2023-01-13T18:14:24;8.80;99.90
4874;DHT22;2451;49.970;9.068;2023-01-13T18:16:50;8.80;99.90
4874;DHT22;2451;49.970;9.068;2023-01-13T18:19:17;8.80;99.90
4874;DHT22;2451;49.970;9.068;2023-01-13T18:22:01;8.80;99.90
4874;DHT22;2451;49.970;9.068;2023-01-13T18:24:45;8.80;99.90
4874;DHT22;2451;49.970;9.068;2023-01-13T18:27:34;8.80;99.90
4874;DHT22;2451;49.970;9.068;2023-01-13T18:30:01;8.80;99.90
4874;DHT22;2451;49.970;9.068;2023-01-13T18:32:29;8.80;99.90
4874;DHT22;2451;49.970;9.068;2023-01-13T18:35:03;8.80;99.90
4874;DHT22;2451;49.970;9.068;2023-01-13T18:37:30;8.80;99.90
4874;DHT22;2451;49.970;9.068;2023-01-13T18:39:56;8.80;99.90
4874;DHT22;2451;49.970;9.068;2023-01-13T18:42:22;8.80;99.90
4874;DHT22;2451;49.970;9.068;2023-01-13T18:45:07;8.80;99.90
4874;DHT22;2451;49.970;9.068;2023-01-13T18:47:32;8.80;99.90
4874;DHT22;2451;49.970;9.068;2023-01-13T18:49:58;8.80;99.90
4874;DHT22;2451;49.970;9.068;2023-01-13T18:52:24;8.80;99.90
4874;DHT22;2451;49.970;9.068;2023-01-13T18:54:51;8.80;99.90
4874;DHT22;2451;49.970;9.068;2023-01-13T18:57:19;8.70;99.90
4874;DHT22;2451;49.970;9.068;2023-01-13T18:59:47;8.70;99.90